createdAt,value
2023-01-08T00:01:12.840Z,76.38
2023-01-08T00:03:40.386Z,76.44
2023-01-08T00:06:11.355Z,76.52
2023-01-08T00:08:38.076Z,76.64
2023-01-08T00:11:04.671Z,76.84
2023-01-08T00:13:31.247Z,76.98
2023-01-08T00:16:02.617Z,77.02
2023-01-08T00:18:29.261Z,77.19
2023-01-08T00:20:55.668Z,77.34
2023-01-08T00:23:22.929Z,77.50
2023-01-08T00:25:49.333Z,77.45
2023-01-08T00:28:15.895Z,77.58
2023-01-08T00:30:42.542Z,77.71
2023-01-08T00:33:10.487Z,77.95
2023-01-08T00:35:40.541Z,77.78
2023-01-08T00:38:07.367Z,78.05
2023-01-08T00:40:35.213Z,78.07
2023-01-08T00:43:01.809Z,77.98
2023-01-08T00:45:28.480Z,78.21
2023-01-08T00:47:54.851Z,78.23
2023-01-08T00:50:21.424Z,78.50
2023-01-08T00:52:47.830Z,78.44
2023-01-08T00:55:14.311Z,78.69
2023-01-08T01:00:37.361Z,78.83
2023-01-08T01:03:03.893Z,78.95
2023-01-08T01:05:30.400Z,78.99
2023-01-08T01:07:57.172Z,78.93
2023-01-08T01:10:24.405Z,78.90
2023-01-08T01:12:51.010Z,78.95
2023-01-08T01:15:18.627Z,79.01
2023-01-08T01:17:46.174Z,78.96
2023-01-08T01:20:17.286Z,79.00
2023-01-08T01:22:44.033Z,78.98
2023-01-08T01:25:10.970Z,78.90
2023-01-08T01:27:37.401Z,78.77
2023-01-08T01:30:08.000Z,78.73
2023-01-08T01:32:34.595Z,78.80
2023-01-08T01:35:01.505Z,79.08
2023-01-08T01:37:28.070Z,79.10
2023-01-08T01:39:56.152Z,79.17
2023-01-08T01:42:40.903Z,79.17
2023-01-08T01:45:22.344Z,79.11
2023-01-08T01:47:58.321Z,79.12
2023-01-08T01:50:33.332Z,79.00
2023-01-08T01:53:26.188Z,80.11
2023-01-08T01:55:53.527Z,81.34
2023-01-08T01:58:25.756Z,82.62
2023-01-08T02:00:54.464Z,83.47
2023-01-08T02:03:24.030Z,84.32
2023-01-08T02:06:28.029Z,85.03
2023-01-08T02:09:13.305Z,84.96
2023-01-08T02:12:17.719Z,85.13
2023-01-08T02:15:01.603Z,85.71
2023-01-08T02:18:01.304Z,86.14
2023-01-08T02:20:34.284Z,86.15
2023-01-08T02:23:11.520Z,86.22
2023-01-08T02:26:12.382Z,86.62
2023-01-08T02:28:52.399Z,86.81
2023-01-08T02:31:22.554Z,87.01
2023-01-08T02:33:49.019Z,87.09
2023-01-08T02:36:15.739Z,87.47
2023-01-08T02:39:15.967Z,88.05
2023-01-08T02:42:00.796Z,88.39
2023-01-08T02:44:50.708Z,88.77
2023-01-08T02:47:26.030Z,89.01
2023-01-08T02:50:00.846Z,89.17
2023-01-08T02:52:31.129Z,89.28
2023-01-08T02:55:00.990Z,89.41
2023-01-08T02:57:30.317Z,89.59
2023-01-08T02:59:57.792Z,89.57
2023-01-08T03:02:28.551Z,89.82
2023-01-08T03:05:03.576Z,89.87
2023-01-08T03:07:30.087Z,89.87
2023-01-08T03:09:56.678Z,89.90
2023-01-08T03:12:53.857Z,89.63
2023-01-08T03:15:30.463Z,89.93
2023-01-08T03:18:01.737Z,89.82
2023-01-08T03:20:30.015Z,89.90
2023-01-08T03:23:00.414Z,90.13
2023-01-08T03:25:30.131Z,90.27
2023-01-08T03:28:07.333Z,90.28
2023-01-08T03:30:36.173Z,90.42
2023-01-08T03:33:04.500Z,90.50
2023-01-08T03:35:32.504Z,90.79
2023-01-08T03:38:06.965Z,90.97
2023-01-08T03:40:46.340Z,90.95
2023-01-08T03:43:12.997Z,91.18
2023-01-08T03:45:47.473Z,91.37
2023-01-08T03:48:14.365Z,91.32
2023-01-08T03:50:41.380Z,91.55
2023-01-08T03:53:09.279Z,91.65
2023-01-08T03:55:35.853Z,91.74
2023-01-08T03:58:02.504Z,92.01
2023-01-08T04:00:29.091Z,92.14
2023-01-08T04:02:55.594Z,92.29
2023-01-08T04:05:22.086Z,92.60
2023-01-08T04:07:48.625Z,92.85
2023-01-08T04:10:15.191Z,92.84
2023-01-08T04:12:43.592Z,93.04
2023-01-08T04:15:10.559Z,93.22
2023-01-08T04:17:37.095Z,93.40
2023-01-08T04:20:04.025Z,93.53
2023-01-08T04:22:30.718Z,93.31
2023-01-08T04:24:57.204Z,93.28
2023-01-08T04:27:23.706Z,93.24
2023-01-08T04:29:50.297Z,93.25
2023-01-08T04:32:16.797Z,93.26
2023-01-08T04:34:43.264Z,93.38
2023-01-08T04:37:09.983Z,93.19
2023-01-08T04:39:36.500Z,93.10
2023-01-08T04:42:03.069Z,93.18
2023-01-08T04:44:29.666Z,93.12
2023-01-08T04:46:56.276Z,93.00
2023-01-08T04:49:22.874Z,92.99
2023-01-08T04:51:49.380Z,92.72
2023-01-08T04:54:15.969Z,92.76
2023-01-08T04:56:42.607Z,92.77
2023-01-08T04:59:09.216Z,92.61
2023-01-08T05:01:35.820Z,92.26
2023-01-08T05:04:05.183Z,92.23
2023-01-08T05:06:32.632Z,92.11
2023-01-08T05:08:59.642Z,91.94
2023-01-08T05:11:26.370Z,91.61
2023-01-08T05:13:53.758Z,91.15
2023-01-08T05:16:20.319Z,91.11
2023-01-08T05:18:47.773Z,90.77
2023-01-08T05:21:15.002Z,90.39
2023-01-08T05:23:45.350Z,90.16
2023-01-08T05:26:11.836Z,89.80
2023-01-08T05:28:38.368Z,89.65
2023-01-08T05:31:05.253Z,89.61
2023-01-08T05:33:31.764Z,89.63
2023-01-08T05:35:58.322Z,89.58
2023-01-08T05:38:24.910Z,89.80
2023-01-08T05:40:54.987Z,89.85
2023-01-08T05:43:21.578Z,89.88
2023-01-08T05:45:48.102Z,90.05
2023-01-08T05:48:14.677Z,90.06
2023-01-08T05:50:41.214Z,90.06
2023-01-08T05:53:08.723Z,89.88
2023-01-08T05:55:36.122Z,89.70
2023-01-08T05:58:06.145Z,89.66
2023-01-08T06:00:33.961Z,89.41
2023-01-08T06:03:00.542Z,89.31
2023-01-08T06:05:27.239Z,88.87
2023-01-08T06:07:53.720Z,88.83
2023-01-08T06:10:20.534Z,88.33
2023-01-08T06:12:47.086Z,88.25
2023-01-08T06:15:13.562Z,88.07
2023-01-08T06:17:40.168Z,88.09
2023-01-08T06:20:07.264Z,87.85
2023-01-08T06:22:34.537Z,87.60
2023-01-08T06:25:01.837Z,87.48
2023-01-08T06:27:28.343Z,87.45
2023-01-08T06:29:54.907Z,87.45
2023-01-08T06:32:21.616Z,86.88
2023-01-08T06:34:48.124Z,86.66
2023-01-08T06:37:15.020Z,86.74
2023-01-08T06:39:41.575Z,86.64
2023-01-08T06:42:08.155Z,86.08
2023-01-08T06:44:34.619Z,86.00
2023-01-08T06:47:01.069Z,85.86
2023-01-08T06:49:27.581Z,85.54
2023-01-08T06:51:54.122Z,85.35
2023-01-08T06:54:20.711Z,85.23
2023-01-08T06:56:54.017Z,85.24
2023-01-08T06:59:21.540Z,84.58
2023-01-08T07:01:48.495Z,84.63
2023-01-08T07:04:15.153Z,84.43
2023-01-08T07:06:41.700Z,85.33
2023-01-08T07:09:12.393Z,86.58
2023-01-08T07:11:39.621Z,86.69
2023-01-08T07:14:06.100Z,89.07
2023-01-08T07:16:33.837Z,89.58
2023-01-08T07:19:00.373Z,90.59
2023-01-08T07:21:27.041Z,90.65
2023-01-08T07:23:53.579Z,89.66
2023-01-08T07:26:20.078Z,88.51
2023-01-08T07:28:46.695Z,85.59
2023-01-08T07:32:36.042Z,86.02
2023-01-08T07:35:02.984Z,86.41
2023-01-08T07:37:29.531Z,84.88
2023-01-08T07:39:55.966Z,85.27
2023-01-08T07:42:22.493Z,83.67
2023-01-08T07:44:48.930Z,83.99
2023-01-08T07:47:15.501Z,84.86
2023-01-08T07:49:42.000Z,84.25
2023-01-08T07:52:08.503Z,83.02
2023-01-08T07:54:35.011Z,82.80
2023-01-08T07:57:01.558Z,80.17
2023-01-08T07:59:27.979Z,80.60
2023-01-08T08:01:54.567Z,80.71
2023-01-08T08:04:21.148Z,80.25
2023-01-08T08:06:47.605Z,80.57
2023-01-08T08:09:14.104Z,80.45
2023-01-08T08:11:40.638Z,80.28
2023-01-08T08:14:07.330Z,79.76
2023-01-08T08:16:34.261Z,79.79
2023-01-08T08:19:01.061Z,79.50
2023-01-08T08:21:29.372Z,80.23
2023-01-08T08:23:56.533Z,80.02
2023-01-08T08:26:23.321Z,79.82
2023-01-08T08:28:50.050Z,79.83
2023-01-08T08:31:16.706Z,79.10
2023-01-08T08:33:43.216Z,79.31
2023-01-08T08:36:09.919Z,78.85
2023-01-08T08:38:40.081Z,78.72
2023-01-08T08:41:07.165Z,77.98
2023-01-08T08:43:33.660Z,78.76
2023-01-08T08:46:00.102Z,78.77
2023-01-08T08:48:26.974Z,78.53
2023-01-08T08:50:53.536Z,79.20
2023-01-08T08:53:20.012Z,79.34
2023-01-08T08:55:46.565Z,79.40
2023-01-08T08:58:13.552Z,80.14
2023-01-08T09:00:42.305Z,80.95
2023-01-08T09:03:16.619Z,81.65
2023-01-08T09:05:43.602Z,81.51
2023-01-08T09:08:10.561Z,81.57
2023-01-08T09:10:44.112Z,81.92
2023-01-08T09:13:11.347Z,81.83
2023-01-08T09:15:38.583Z,82.36
2023-01-08T09:18:05.825Z,82.87
2023-01-08T09:20:32.344Z,83.37
2023-01-08T09:23:00.233Z,83.73
2023-01-08T09:25:27.064Z,84.14
2023-01-08T09:28:06.135Z,83.94
2023-01-08T09:30:33.189Z,83.18
2023-01-08T09:33:02.955Z,83.41
2023-01-08T09:35:30.559Z,83.30
2023-01-08T09:37:57.417Z,82.88
2023-01-08T09:40:28.475Z,81.39
2023-01-08T09:43:00.160Z,79.42
2023-01-08T09:45:39.563Z,77.11
2023-01-08T09:48:12.505Z,76.33
2023-01-08T09:50:39.476Z,73.18
2023-01-08T09:53:14.873Z,73.29
2023-01-08T09:55:42.785Z,72.94
2023-01-08T09:58:37.009Z,73.50
2023-01-08T10:01:05.598Z,72.89
2023-01-08T10:03:46.624Z,71.80
2023-01-08T10:06:15.944Z,72.79
2023-01-08T10:08:42.958Z,73.77
2023-01-08T10:11:10.990Z,72.50
2023-01-08T10:13:40.218Z,72.06
2023-01-08T10:16:11.214Z,72.21
2023-01-08T10:18:40.650Z,73.65
2023-01-08T10:21:14.027Z,74.88
2023-01-08T10:23:52.959Z,74.18
2023-01-08T10:26:36.462Z,71.11
2023-01-08T10:29:07.440Z,72.83
2023-01-08T10:31:38.695Z,75.54
2023-01-08T10:34:10.853Z,77.30
2023-01-08T10:36:42.078Z,77.18
2023-01-08T10:39:22.788Z,74.08
2023-01-08T10:41:53.727Z,71.26
2023-01-08T10:44:24.179Z,71.23
2023-01-08T10:46:55.514Z,71.80
2023-01-08T10:49:33.868Z,73.44
2023-01-08T10:52:01.268Z,72.24
2023-01-08T10:54:39.494Z,72.68
2023-01-08T10:57:25.207Z,73.82
2023-01-08T10:59:51.779Z,73.62
2023-01-08T11:02:33.270Z,72.54
2023-01-08T11:05:00.667Z,71.61
2023-01-08T11:07:28.336Z,71.63
2023-01-08T11:09:55.477Z,72.50
2023-01-08T11:12:40.088Z,72.64
2023-01-08T11:15:17.728Z,73.05
2023-01-08T11:17:45.012Z,73.25
2023-01-08T11:20:22.399Z,72.85
2023-01-08T11:22:48.996Z,73.10
2023-01-08T11:25:24.464Z,72.85
2023-01-08T11:27:52.426Z,73.02
2023-01-08T11:30:25.970Z,72.12
2023-01-08T11:33:04.056Z,71.37
2023-01-08T11:35:39.203Z,71.83
2023-01-08T11:38:08.235Z,72.15
2023-01-08T11:40:50.016Z,72.71
2023-01-08T11:43:28.823Z,73.22
2023-01-08T11:46:36.956Z,73.07
2023-01-08T11:49:37.025Z,73.39
2023-01-08T11:52:41.370Z,74.05
2023-01-08T11:55:17.090Z,74.31
2023-01-08T11:58:12.673Z,75.20
2023-01-08T12:01:07.291Z,77.30
2023-01-08T12:04:19.243Z,79.23
2023-01-08T12:07:05.433Z,79.65
2023-01-08T12:09:38.007Z,79.86
2023-01-08T12:12:48.830Z,80.34
2023-01-08T12:15:29.360Z,80.31
2023-01-08T12:18:20.709Z,80.20
2023-01-08T12:21:11.587Z,81.42
2023-01-08T12:24:06.631Z,81.08
2023-01-08T12:26:46.152Z,79.17
2023-01-08T12:29:46.863Z,78.45
2023-01-08T12:32:17.768Z,79.43
2023-01-08T12:34:55.905Z,79.86
2023-01-08T12:37:52.097Z,78.45
2023-01-08T12:40:32.281Z,78.10
2023-01-08T12:43:04.502Z,77.56
2023-01-08T12:45:40.602Z,75.67
2023-01-08T12:48:11.238Z,74.80
2023-01-08T12:50:41.595Z,75.23
2023-01-08T12:53:26.781Z,75.53
2023-01-08T12:56:05.440Z,76.39
2023-01-08T12:58:43.902Z,76.29
2023-01-08T13:01:30.486Z,76.83
2023-01-08T13:03:59.093Z,76.94
2023-01-08T13:06:26.537Z,77.62
2023-01-08T13:08:57.312Z,76.70
2023-01-08T13:11:26.424Z,75.30
2023-01-08T13:14:05.674Z,74.89
2023-01-08T13:16:39.036Z,72.99
2023-01-08T13:19:07.269Z,73.35
2023-01-08T13:21:35.702Z,73.76
2023-01-08T13:24:06.300Z,73.64
2023-01-08T13:26:35.740Z,72.54
2023-01-08T13:29:37.936Z,72.40
2023-01-08T13:32:05.381Z,71.53
2023-01-08T13:34:42.175Z,70.93
2023-01-08T13:37:16.454Z,70.44
2023-01-08T13:39:49.954Z,69.03
2023-01-08T13:42:29.944Z,68.81
2023-01-08T13:45:02.073Z,69.41
2023-01-08T13:47:34.982Z,69.13
2023-01-08T13:50:14.410Z,69.33
2023-01-08T13:52:45.214Z,69.17
2023-01-08T13:55:17.970Z,70.25
2023-01-08T13:57:48.976Z,70.02
2023-01-08T14:00:25.129Z,69.41
2023-01-08T14:02:52.205Z,69.15
2023-01-08T14:05:30.476Z,69.40
2023-01-08T14:07:58.938Z,71.34
2023-01-08T14:10:27.036Z,71.92
2023-01-08T14:12:54.954Z,72.13
2023-01-08T14:15:27.578Z,72.23
2023-01-08T14:17:55.992Z,72.03
2023-01-08T14:20:34.669Z,72.09
2023-01-08T14:23:02.814Z,72.11
2023-01-08T14:25:29.954Z,71.37
2023-01-08T14:28:02.094Z,71.73
2023-01-08T14:30:29.345Z,71.79
2023-01-08T14:32:57.728Z,71.63
2023-01-08T14:35:32.603Z,71.89
2023-01-08T14:38:03.541Z,72.20
2023-01-08T14:40:39.957Z,72.23
2023-01-08T14:43:18.210Z,72.40
2023-01-08T14:45:48.261Z,72.25
2023-01-08T14:48:25.996Z,72.22
2023-01-08T14:51:08.182Z,71.96
2023-01-08T14:53:44.081Z,72.09
2023-01-08T14:56:17.672Z,71.52
2023-01-08T14:58:45.638Z,71.02
2023-01-08T15:01:19.765Z,71.01
2023-01-08T15:03:51.150Z,70.96
2023-01-08T15:06:26.155Z,70.85
2023-01-08T15:08:52.824Z,70.22
2023-01-08T15:11:19.359Z,69.75
2023-01-08T15:13:48.356Z,69.92
2023-01-08T15:16:35.173Z,68.99
2023-01-08T15:19:12.808Z,69.11
2023-01-08T15:21:45.642Z,68.67
2023-01-08T15:24:24.464Z,69.13
2023-01-08T15:26:52.349Z,69.40
2023-01-08T15:29:23.773Z,69.21
2023-01-08T15:31:50.464Z,69.47
2023-01-08T15:34:19.484Z,69.15
2023-01-08T15:36:47.597Z,69.40
2023-01-08T15:39:14.130Z,69.58
2023-01-08T15:41:59.247Z,69.32
2023-01-08T15:44:26.263Z,70.02
2023-01-08T15:46:53.315Z,70.07
2023-01-08T15:49:20.316Z,70.54
2023-01-08T15:51:48.792Z,70.74
2023-01-08T15:54:16.014Z,71.60
2023-01-08T15:56:43.082Z,72.13
2023-01-08T15:59:09.838Z,72.42
2023-01-08T16:01:36.771Z,72.64
2023-01-08T16:04:04.098Z,72.82
2023-01-08T16:06:31.640Z,72.56
2023-01-08T16:09:00.358Z,72.57
2023-01-08T16:11:27.069Z,72.16
2023-01-08T16:13:54.292Z,71.96
2023-01-08T16:16:21.395Z,71.98
2023-01-08T16:18:48.057Z,70.77
2023-01-08T16:21:14.758Z,70.76
2023-01-08T16:23:42.105Z,70.78
2023-01-08T16:26:15.894Z,70.88
2023-01-08T16:28:42.946Z,71.65
2023-01-08T16:31:10.206Z,71.70
2023-01-08T16:33:37.272Z,72.32
2023-01-08T16:36:06.500Z,72.87
2023-01-08T16:38:33.972Z,73.24
2023-01-08T16:41:00.835Z,73.50
2023-01-08T16:43:30.232Z,73.40
2023-01-08T16:45:57.131Z,73.97
2023-01-08T16:48:23.908Z,74.54
2023-01-08T16:50:50.534Z,75.56
2023-01-08T16:53:21.625Z,75.88
2023-01-08T16:55:48.199Z,76.32
2023-01-08T16:58:14.727Z,76.37
2023-01-08T17:00:41.264Z,76.89
2023-01-08T17:03:07.747Z,77.14
2023-01-08T17:05:36.569Z,77.54
2023-01-08T17:08:03.313Z,77.85
2023-01-08T17:10:29.804Z,78.20
2023-01-08T17:12:56.282Z,78.33
2023-01-08T17:15:22.756Z,78.03
2023-01-08T17:17:49.276Z,78.08
2023-01-08T17:20:16.089Z,77.86
2023-01-08T17:22:42.520Z,78.10
2023-01-08T17:25:09.315Z,77.99
2023-01-08T17:27:35.911Z,77.60
2023-01-08T17:30:02.661Z,77.70
2023-01-08T17:32:30.278Z,77.90
2023-01-08T17:34:56.745Z,77.99
2023-01-08T17:37:23.447Z,77.93
2023-01-08T17:39:49.941Z,77.48
2023-01-08T17:42:25.622Z,77.09
2023-01-08T17:44:52.879Z,77.16
2023-01-08T17:47:22.625Z,77.15
2023-01-08T17:49:53.943Z,77.10
2023-01-08T17:52:22.134Z,76.84
2023-01-08T17:54:49.985Z,76.63
2023-01-08T17:57:18.093Z,76.20
2023-01-08T17:59:45.543Z,76.25
2023-01-08T18:05:42.161Z,76.27
2023-01-08T18:08:08.644Z,76.55
2023-01-08T18:10:35.032Z,76.66
2023-01-08T18:13:01.473Z,76.77
2023-01-08T18:15:28.146Z,76.41
2023-01-08T18:17:54.883Z,76.66
2023-01-08T18:20:21.835Z,76.66
2023-01-08T18:22:48.443Z,76.76
2023-01-08T18:25:15.062Z,76.94
2023-01-08T18:27:41.531Z,76.79
2023-01-08T18:30:08.604Z,77.15
2023-01-08T18:32:35.098Z,77.52
2023-01-08T18:35:03.769Z,77.59
2023-01-08T18:37:32.943Z,77.39
2023-01-08T18:39:59.398Z,77.71
2023-01-08T18:42:25.858Z,77.81
2023-01-08T18:44:56.892Z,77.91
2023-01-08T18:47:25.911Z,77.92
2023-01-08T18:49:58.509Z,78.10
2023-01-08T18:52:26.167Z,78.26
2023-01-08T18:57:36.364Z,79.04
2023-01-08T19:00:04.507Z,79.68
2023-01-08T19:02:33.870Z,79.83
2023-01-08T19:05:00.693Z,80.16
2023-01-08T19:07:27.281Z,80.72
2023-01-08T19:09:53.666Z,81.06
2023-01-08T19:12:20.091Z,81.24
2023-01-08T19:14:48.012Z,80.75
2023-01-08T19:17:14.482Z,79.75
2023-01-08T19:19:40.881Z,79.74
2023-01-08T19:22:07.277Z,79.75
2023-01-08T19:24:36.083Z,80.04
2023-01-08T19:27:03.405Z,79.92
2023-01-08T19:29:29.850Z,79.72
2023-01-08T19:31:56.707Z,79.83
2023-01-08T19:34:23.452Z,80.11
2023-01-08T19:36:49.866Z,80.09
2023-01-08T19:39:16.502Z,80.18
2023-01-08T19:42:01.589Z,80.25
2023-01-08T19:44:28.028Z,80.47
2023-01-08T19:46:54.574Z,80.42
2023-01-08T19:49:20.982Z,80.57
2023-01-08T19:51:47.408Z,80.60
2023-01-08T19:54:13.862Z,80.41
2023-01-08T19:56:40.348Z,80.67
2023-01-08T19:59:06.797Z,80.75
2023-01-08T20:01:33.624Z,80.67
2023-01-08T20:04:00.293Z,80.86
2023-01-08T20:06:27.423Z,81.08
2023-01-08T20:08:58.328Z,81.11
2023-01-08T20:11:25.958Z,80.87
2023-01-08T20:13:52.640Z,81.01
2023-01-08T20:16:20.670Z,81.04
2023-01-08T20:18:47.275Z,80.83
2023-01-08T20:21:17.839Z,80.93
2023-01-08T20:23:45.045Z,80.95
2023-01-08T20:26:14.606Z,80.81
2023-01-08T20:28:42.944Z,80.91
2023-01-08T20:31:15.952Z,81.05
2023-01-08T20:33:43.558Z,81.12
2023-01-08T20:36:12.547Z,81.22
2023-01-08T20:38:39.499Z,81.29
2023-01-08T20:41:06.840Z,81.39
2023-01-08T20:43:34.716Z,81.30
2023-01-08T20:46:01.887Z,81.14
2023-01-08T20:48:30.005Z,81.25
2023-01-08T20:51:00.935Z,81.27
2023-01-08T20:53:30.222Z,80.85
2023-01-08T20:56:01.898Z,80.74
2023-01-08T20:58:28.261Z,80.43
2023-01-08T21:00:54.674Z,80.02
2023-01-08T21:03:21.118Z,79.84
2023-01-08T21:05:47.608Z,79.37
2023-01-08T21:08:13.969Z,79.30
2023-01-08T21:10:40.335Z,79.08
2023-01-08T21:13:06.726Z,79.17
2023-01-08T21:15:36.311Z,79.05
2023-01-08T21:18:02.804Z,79.12
2023-01-08T21:20:29.396Z,79.06
2023-01-08T21:22:56.120Z,78.96
2023-01-08T21:25:22.511Z,79.07
2023-01-08T21:27:48.997Z,79.12
2023-01-08T21:30:15.605Z,79.09
2023-01-08T21:32:41.985Z,79.03
2023-01-08T21:35:08.555Z,79.20
2023-01-08T21:37:36.971Z,79.07
2023-01-08T21:40:04.691Z,79.18
2023-01-08T21:42:49.726Z,79.32
2023-01-08T21:45:25.462Z,79.29
2023-01-08T21:47:53.856Z,79.38
2023-01-08T21:50:20.622Z,79.29
2023-01-08T21:53:05.857Z,79.32
2023-01-08T21:55:33.570Z,79.53
2023-01-08T21:58:00.144Z,79.41
2023-01-08T22:00:28.271Z,79.46
2023-01-08T22:02:54.789Z,79.65
2023-01-08T22:05:21.371Z,79.62
2023-01-08T22:07:47.744Z,79.66
2023-01-08T22:10:15.383Z,79.58
2023-01-08T22:12:42.049Z,79.49
2023-01-08T22:15:09.735Z,79.45
2023-01-08T22:17:36.664Z,79.29
2023-01-08T22:20:05.774Z,79.14
2023-01-08T22:22:32.573Z,79.61
2023-01-08T22:24:58.924Z,80.45
2023-01-08T22:27:25.321Z,82.00
2023-01-08T22:29:51.828Z,83.05
2023-01-08T22:32:18.275Z,83.94
2023-01-08T22:34:44.708Z,84.53
2023-01-08T22:37:11.158Z,85.07
2023-01-08T22:39:37.643Z,85.07
2023-01-08T22:42:04.306Z,85.93
2023-01-08T22:44:30.838Z,86.88
2023-01-08T22:46:59.070Z,86.82
2023-01-08T22:49:25.544Z,87.14
2023-01-08T22:51:52.239Z,87.69
2023-01-08T22:54:18.770Z,88.03
2023-01-08T22:56:45.208Z,88.70
2023-01-08T22:59:11.681Z,89.13
2023-01-08T23:01:38.189Z,89.50
2023-01-08T23:04:05.015Z,90.00
2023-01-08T23:06:34.721Z,90.17
2023-01-08T23:09:01.407Z,90.57
2023-01-08T23:11:28.411Z,91.08
2023-01-08T23:13:55.280Z,91.65
2023-01-08T23:16:24.780Z,91.98
2023-01-08T23:18:52.813Z,92.38
2023-01-08T23:21:22.090Z,92.66
2023-01-08T23:23:48.732Z,92.51
2023-01-08T23:26:27.948Z,92.59
2023-01-08T23:28:55.514Z,92.96
2023-01-08T23:31:25.623Z,93.22
2023-01-08T23:33:52.395Z,93.24
2023-01-08T23:36:20.981Z,93.48
2023-01-08T23:38:55.292Z,93.72
2023-01-08T23:41:26.113Z,93.75
2023-01-08T23:43:54.495Z,93.73
2023-01-08T23:46:20.927Z,93.87
2023-01-08T23:48:47.352Z,94.02
2023-01-08T23:51:14.179Z,93.59
2023-01-08T23:53:40.752Z,93.23
2023-01-08T23:56:07.617Z,93.19
2023-01-08T23:58:34.024Z,93.38
